TLPL/UVF METAR and TAF weather

Enter ICAO airport designator
Station Type Date Time Source
TLPL METAR 2022/06/27 18:00 UTC NOAA

TLPL 271800Z 07016KT 6000 -SHRA FEW020 BKN042 29/25 Q1014 TEMPO SHRA


Station Type Date Time Source
TLPL Decoded METAR 2022/06/27 18:00 UTC NOAA

Hewanorra International Airport, Saint Lucia (TLPL) 13-45N 060-57W 10M
Jun 27, 2022 - 02:00 PM EDT / 2022.06.27 1800 UTC
Wind: from the ENE (070 degrees) at 18 MPH (16 KT):0
Visibility: 3 mile(s):0
Sky conditions: mostly cloudy
Weather: light rain showers
Temperature: 84 F (29 C)
Dew Point: 77 F (25 C)
Relative Humidity: 79%
Pressure (altimeter): 29.94 in. Hg (1014 hPa)
ob: TLPL 271800Z 07016KT 6000 -SHRA FEW020 BKN042 29/25 Q1014 TEMPO SHRA
cycle: 18

Station Type Date Time Source
TLPL TAF 2022/06/27 18:10 UTC NOAA

TAF TLPL 271700Z 2718/2818 08020KT 9999 SCT023
TEMPO 2718/2812 SHRA BKN015

Example: see airport list